Redwood City, CA

2:40 PM PDT op 22 oktober 2014 (GMT -0700)
San Carlos | Change Station
CLOSE
Current Station
Luchthaven
Location: San Carlos,
Geometrische hoogte: 3 ft
Nabije weerstations

Hoogte 3 ft 37.51 °N, 122.25 °W | Updated 48 minutes ago

Merendeels bewolkt
Merendeels bewolkt
72 °F
Voelt als 72 °F
N
10
Wind Variabel Wind van noord

Vandaag
Hoog -- | Laag -- °F
--% Kans op neerslag
Gisteren
Hoog -- | Laag -- °F
Precip. -- inches
7:23 AM 6:22 PM
Afnemende halvemaan, 1% visible
Druk 30.06 inches
Zicht 10.0 mijlen
Wolken Merendeels bewolkt 20000 ft
Dauwpunt 55 °F
Vochtigheid 57%
Neerslag 0.00 inches
Dikte sneeuw Niet beschikbaar.
UV 3 van de 12
Pollen 2.40 van de 12
Ozon Goed
PM2.5 Goed
Flu Activity Sporadic
METAR KSQL 222052Z 35009KT 10SM BKN200 22/13 A3006

More Conditions Fewer Conditions

Druk 30.06 inches
Zicht 10.0 mijlen
Wolken Merendeels bewolkt 20000 ft
Dauwpunt 55 °F
Vochtigheid 57%
Neerslag 0.00 inches
Dikte sneeuw Niet beschikbaar.
UV 3 van de 12
Pollen 2.40 van de 12
Ozon Goed
PM2.5 Goed
Flu Activity Sporadic
METAR KSQL 222052Z 35009KT 10SM BKN200 22/13 A3006

More Conditions Fewer Conditions

10-Day Weather Forecast

Almanac

Astronomie

Oct. 22, 2014 Opkomst Ondergang
Werkelijke tijd 7:23 AM PDT 6:22 PM PDT
Burgerlijke schemering 6:57 AM PDT 6:48 PM PDT
Nautische schemering 6:26 AM PDT 7:19 PM PDT
Astronomische schemering 5:56 AM PDT 7:49 PM PDT
Maan 6:11 AM PDT 5:51 PM PDT
Golflengte van het zichtbare licht 11h 51m
Daglengte
10h 58m
Tomorrow will be 2m 15s shorter.
Afnemende halvemaan, 1% of the Moon is Illuminated
Vandaag
Afnemende halvemaan
oktober 23
Nieuw
oktober 30
Eerste kwartier
nov 6
Volle maan
nov 14
Laatste kwartier

Extremen vandaag

State Highs State Lows

Community

WunderPhotos

Upload Photos

1,764,047 foto’s ge-upload!

WunderBlogs® & News

By Dr. Jeff Masters
Director of Meteorology, Weather Underground
By Kari Strenfel
Meteorologist, Weather Underground
By Christopher C. Burt
Weather Historian, Weather Underground
October 22, 2014
October 22, 2014
October 22, 2014

Nearby

Luchtkwaliteit

  Luchtkwaliteit LK-index Verontreinigende stof
Gisteren Goed
OZONE
Gisteren Goed
PM2.5
Actueel Goed
PM2.5
Actueel Goed
OZONE
woensdag Goed
OZONE
donderdag Goed
OZONE
vrijdag Goed
OZONE
zaterdag Goed
PM2.5
zondag Goed
PM2.5
maandag Goed
PM2.5

Dikte sneeuw

Station Depth Geometrische hoogte
Blue Lakes 0 in 8000 ft
Rubicon #2 0 in 7500 ft
Ward Creek #3 0 in 6750 ft
Summit Meadow 0 in 9122 ft
Tahoe City Cross 0 in 6750 ft

Aardbevingen

Stad Distance Mag. Time & Date
No recent earthquake activity has been reported nearby.
Minimum magnitude displayed is 2.5.

Watertemperatuur langs de kust

Plaats Temperatuur
Geen meldingen van stations

Nabije weerstations